sensor_id;sensor_type;location;lat;lon;timestamp;temperature;humidity
37998;DHT22;24079;51.824;4.682;2023-06-22T00:01:16;20.60;99.90
37998;DHT22;24079;51.824;4.682;2023-06-22T00:03:41;20.60;99.90
37998;DHT22;24079;51.824;4.682;2023-06-22T00:06:07;20.50;99.90
37998;DHT22;24079;51.824;4.682;2023-06-22T00:08:33;20.50;99.90
37998;DHT22;24079;51.824;4.682;2023-06-22T00:10:58;20.50;99.90
37998;DHT22;24079;51.824;4.682;2023-06-22T00:13:24;20.50;99.90
37998;DHT22;24079;51.824;4.682;2023-06-22T00:15:49;20.50;99.90
37998;DHT22;24079;51.824;4.682;2023-06-22T00:18:15;20.40;99.90
37998;DHT22;24079;51.824;4.682;2023-06-22T00:20:41;20.40;99.90
37998;DHT22;24079;51.824;4.682;2023-06-22T00:23:07;20.40;99.90
37998;DHT22;24079;51.824;4.682;2023-06-22T00:25:42;20.30;99.90
37998;DHT22;24079;51.824;4.682;2023-06-22T00:28:08;20.30;99.90
37998;DHT22;24079;51.824;4.682;2023-06-22T00:30:35;20.20;99.90
37998;DHT22;24079;51.824;4.682;2023-06-22T00:33:00;20.20;99.90
37998;DHT22;24079;51.824;4.682;2023-06-22T00:35:26;20.20;99.90
37998;DHT22;24079;51.824;4.682;2023-06-22T00:37:55;20.20;99.90
37998;DHT22;24079;51.824;4.682;2023-06-22T00:40:26;20.20;99.90
37998;DHT22;24079;51.824;4.682;2023-06-22T00:42:52;20.10;99.90
37998;DHT22;24079;51.824;4.682;2023-06-22T00:45:18;20.10;99.90
37998;DHT22;24079;51.824;4.682;2023-06-22T00:47:43;20.10;99.90
37998;DHT22;24079;51.824;4.682;2023-06-22T00:50:12;20.10;99.90
37998;DHT22;24079;51.824;4.682;2023-06-22T00:52:39;20.10;99.90
37998;DHT22;24079;51.824;4.682;2023-06-22T00:55:08;20.10;99.90
37998;DHT22;24079;51.824;4.682;2023-06-22T00:57:34;20.10;99.90
37998;DHT22;24079;51.824;4.682;2023-06-22T01:00:03;20.00;99.90
37998;DHT22;24079;51.824;4.682;2023-06-22T01:02:33;20.00;99.90
37998;DHT22;24079;51.824;4.682;2023-06-22T01:04:59;19.90;99.90
37998;DHT22;24079;51.824;4.682;2023-06-22T01:07:34;19.90;99.90
37998;DHT22;24079;51.824;4.682;2023-06-22T01:12:34;19.80;99.90
37998;DHT22;24079;51.824;4.682;2023-06-22T01:15:23;19.80;99.90
37998;DHT22;24079;51.824;4.682;2023-06-22T01:17:52;19.80;99.90
37998;DHT22;24079;51.824;4.682;2023-06-22T01:20:20;19.90;99.90
37998;DHT22;24079;51.824;4.682;2023-06-22T01:25:28;19.80;99.90
37998;DHT22;24079;51.824;4.682;2023-06-22T01:30:46;19.70;99.90
37998;DHT22;24079;51.824;4.682;2023-06-22T01:33:14;19.70;99.90
37998;DHT22;24079;51.824;4.682;2023-06-22T01:35:41;19.70;99.90
37998;DHT22;24079;51.824;4.682;2023-06-22T01:38:08;19.70;99.90
37998;DHT22;24079;51.824;4.682;2023-06-22T01:40:36;19.70;99.90
37998;DHT22;24079;51.824;4.682;2023-06-22T01:43:03;19.70;99.90
37998;DHT22;24079;51.824;4.682;2023-06-22T01:45:30;19.60;99.90
37998;DHT22;24079;51.824;4.682;2023-06-22T01:47:56;19.60;99.90
37998;DHT22;24079;51.824;4.682;2023-06-22T01:50:23;19.60;99.90
37998;DHT22;24079;51.824;4.682;2023-06-22T01:52:49;19.60;99.90
37998;DHT22;24079;51.824;4.682;2023-06-22T01:55:15;19.60;99.90
37998;DHT22;24079;51.824;4.682;2023-06-22T01:57:41;19.50;99.90
37998;DHT22;24079;51.824;4.682;2023-06-22T02:00:11;19.50;99.90
37998;DHT22;24079;51.824;4.682;2023-06-22T02:02:59;19.40;99.90
37998;DHT22;24079;51.824;4.682;2023-06-22T02:05:31;19.40;99.90
37998;DHT22;24079;51.824;4.682;2023-06-22T02:08:05;19.30;99.90
37998;DHT22;24079;51.824;4.682;2023-06-22T02:10:32;19.30;99.90
37998;DHT22;24079;51.824;4.682;2023-06-22T02:13:01;19.30;99.90
37998;DHT22;24079;51.824;4.682;2023-06-22T02:15:28;19.30;99.90
37998;DHT22;24079;51.824;4.682;2023-06-22T02:17:53;19.30;99.90
37998;DHT22;24079;51.824;4.682;2023-06-22T02:20:19;19.30;99.90
37998;DHT22;24079;51.824;4.682;2023-06-22T02:22:45;19.30;99.90
37998;DHT22;24079;51.824;4.682;2023-06-22T02:25:11;19.30;99.90
37998;DHT22;24079;51.824;4.682;2023-06-22T02:27:37;19.30;99.90
37998;DHT22;24079;51.824;4.682;2023-06-22T02:30:09;19.30;99.90
37998;DHT22;24079;51.824;4.682;2023-06-22T02:32:36;19.30;99.90
37998;DHT22;24079;51.824;4.682;2023-06-22T02:35:02;19.30;99.90
37998;DHT22;24079;51.824;4.682;2023-06-22T02:37:32;19.20;99.90
37998;DHT22;24079;51.824;4.682;2023-06-22T02:39:58;19.20;99.90
37998;DHT22;24079;51.824;4.682;2023-06-22T02:42:24;19.20;99.90
37998;DHT22;24079;51.824;4.682;2023-06-22T02:44:50;19.20;99.90
37998;DHT22;24079;51.824;4.682;2023-06-22T02:47:16;19.10;99.90
37998;DHT22;24079;51.824;4.682;2023-06-22T02:49:42;19.10;99.90
37998;DHT22;24079;51.824;4.682;2023-06-22T02:52:10;19.10;99.90
37998;DHT22;24079;51.824;4.682;2023-06-22T02:54:36;19.10;99.90
37998;DHT22;24079;51.824;4.682;2023-06-22T02:57:03;19.10;99.90
37998;DHT22;24079;51.824;4.682;2023-06-22T02:59:29;19.10;99.90
37998;DHT22;24079;51.824;4.682;2023-06-22T03:01:55;19.10;99.90
37998;DHT22;24079;51.824;4.682;2023-06-22T03:04:21;19.00;99.90
37998;DHT22;24079;51.824;4.682;2023-06-22T03:06:46;19.00;99.90
37998;DHT22;24079;51.824;4.682;2023-06-22T03:09:17;18.90;99.90
37998;DHT22;24079;51.824;4.682;2023-06-22T03:11:42;18.90;99.90
37998;DHT22;24079;51.824;4.682;2023-06-22T03:14:08;18.90;99.90
37998;DHT22;24079;51.824;4.682;2023-06-22T03:16:34;18.90;99.90
37998;DHT22;24079;51.824;4.682;2023-06-22T03:18:59;18.90;99.90
37998;DHT22;24079;51.824;4.682;2023-06-22T03:21:28;18.90;99.90
37998;DHT22;24079;51.824;4.682;2023-06-22T03:23:54;18.90;99.90
37998;DHT22;24079;51.824;4.682;2023-06-22T03:26:20;18.80;99.90
37998;DHT22;24079;51.824;4.682;2023-06-22T03:28:46;18.90;99.90
37998;DHT22;24079;51.824;4.682;2023-06-22T03:31:11;18.90;99.90
37998;DHT22;24079;51.824;4.682;2023-06-22T03:33:37;18.90;99.90
37998;DHT22;24079;51.824;4.682;2023-06-22T03:36:03;18.90;99.90
37998;DHT22;24079;51.824;4.682;2023-06-22T03:38:29;18.90;99.90
37998;DHT22;24079;51.824;4.682;2023-06-22T03:40:54;18.90;99.90
37998;DHT22;24079;51.824;4.682;2023-06-22T03:43:20;18.90;99.90
37998;DHT22;24079;51.824;4.682;2023-06-22T03:45:46;18.90;99.90
37998;DHT22;24079;51.824;4.682;2023-06-22T03:48:12;18.90;99.90
37998;DHT22;24079;51.824;4.682;2023-06-22T03:50:37;18.80;99.90
37998;DHT22;24079;51.824;4.682;2023-06-22T03:53:03;18.80;99.90
37998;DHT22;24079;51.824;4.682;2023-06-22T03:55:29;18.90;99.90
37998;DHT22;24079;51.824;4.682;2023-06-22T03:57:56;18.90;99.90
37998;DHT22;24079;51.824;4.682;2023-06-22T04:00:23;18.90;99.90
37998;DHT22;24079;51.824;4.682;2023-06-22T04:02:49;18.90;99.90
37998;DHT22;24079;51.824;4.682;2023-06-22T04:05:15;18.90;99.90
37998;DHT22;24079;51.824;4.682;2023-06-22T04:07:44;18.90;99.90
37998;DHT22;24079;51.824;4.682;2023-06-22T04:10:10;18.90;99.90
37998;DHT22;24079;51.824;4.682;2023-06-22T04:12:36;18.90;99.90
37998;DHT22;24079;51.824;4.682;2023-06-22T04:15:02;19.00;99.90
37998;DHT22;24079;51.824;4.682;2023-06-22T04:17:27;19.00;99.90
37998;DHT22;24079;51.824;4.682;2023-06-22T04:19:53;19.00;99.90
37998;DHT22;24079;51.824;4.682;2023-06-22T04:22:19;19.10;99.90
37998;DHT22;24079;51.824;4.682;2023-06-22T04:24:44;19.10;99.90
37998;DHT22;24079;51.824;4.682;2023-06-22T04:27:10;19.10;99.90
37998;DHT22;24079;51.824;4.682;2023-06-22T04:29:36;19.20;99.90
37998;DHT22;24079;51.824;4.682;2023-06-22T04:32:01;19.30;99.90
37998;DHT22;24079;51.824;4.682;2023-06-22T04:34:31;19.30;99.90
37998;DHT22;24079;51.824;4.682;2023-06-22T04:36:57;19.30;99.90
37998;DHT22;24079;51.824;4.682;2023-06-22T04:39:23;19.30;99.90
37998;DHT22;24079;51.824;4.682;2023-06-22T04:41:49;19.40;99.90
37998;DHT22;24079;51.824;4.682;2023-06-22T04:44:17;19.40;99.90
37998;DHT22;24079;51.824;4.682;2023-06-22T04:46:51;19.40;99.90
37998;DHT22;24079;51.824;4.682;2023-06-22T04:49:22;19.50;99.90
37998;DHT22;24079;51.824;4.682;2023-06-22T04:51:48;19.60;99.90
37998;DHT22;24079;51.824;4.682;2023-06-22T04:54:17;19.70;99.90
37998;DHT22;24079;51.824;4.682;2023-06-22T04:56:42;19.80;99.90
37998;DHT22;24079;51.824;4.682;2023-06-22T04:59:08;20.00;99.90
37998;DHT22;24079;51.824;4.682;2023-06-22T05:01:34;20.00;99.90
37998;DHT22;24079;51.824;4.682;2023-06-22T05:04:00;20.00;99.90
37998;DHT22;24079;51.824;4.682;2023-06-22T05:06:27;20.40;99.90
37998;DHT22;24079;51.824;4.682;2023-06-22T05:08:56;20.90;99.90
37998;DHT22;24079;51.824;4.682;2023-06-22T05:11:28;21.20;99.90
37998;DHT22;24079;51.824;4.682;2023-06-22T05:13:54;21.00;99.90
37998;DHT22;24079;51.824;4.682;2023-06-22T05:16:20;20.80;99.90
37998;DHT22;24079;51.824;4.682;2023-06-22T05:18:54;20.80;99.90
37998;DHT22;24079;51.824;4.682;2023-06-22T05:21:24;20.80;99.90
37998;DHT22;24079;51.824;4.682;2023-06-22T05:23:51;20.80;99.90
37998;DHT22;24079;51.824;4.682;2023-06-22T05:26:18;20.80;99.90
37998;DHT22;24079;51.824;4.682;2023-06-22T05:28:44;20.80;99.90
37998;DHT22;24079;51.824;4.682;2023-06-22T05:31:16;20.80;99.90
37998;DHT22;24079;51.824;4.682;2023-06-22T05:33:43;20.70;99.90
37998;DHT22;24079;51.824;4.682;2023-06-22T05:36:09;20.60;99.90
37998;DHT22;24079;51.824;4.682;2023-06-22T05:38:36;20.60;99.90
37998;DHT22;24079;51.824;4.682;2023-06-22T05:41:02;20.50;99.90
37998;DHT22;24079;51.824;4.682;2023-06-22T05:43:28;20.50;99.90
37998;DHT22;24079;51.824;4.682;2023-06-22T05:45:53;20.70;99.90
37998;DHT22;24079;51.824;4.682;2023-06-22T05:48:19;20.80;99.90
37998;DHT22;24079;51.824;4.682;2023-06-22T05:50:44;21.00;99.90
37998;DHT22;24079;51.824;4.682;2023-06-22T05:53:10;21.10;99.90
37998;DHT22;24079;51.824;4.682;2023-06-22T05:55:36;21.20;99.90
37998;DHT22;24079;51.824;4.682;2023-06-22T05:58:02;21.20;99.90
37998;DHT22;24079;51.824;4.682;2023-06-22T06:00:29;21.20;99.90
37998;DHT22;24079;51.824;4.682;2023-06-22T06:02:54;21.20;99.90
37998;DHT22;24079;51.824;4.682;2023-06-22T06:05:20;21.30;99.90
37998;DHT22;24079;51.824;4.682;2023-06-22T06:07:46;21.40;99.90
37998;DHT22;24079;51.824;4.682;2023-06-22T06:10:12;21.50;99.90
37998;DHT22;24079;51.824;4.682;2023-06-22T06:12:38;21.60;99.90
37998;DHT22;24079;51.824;4.682;2023-06-22T06:15:04;21.70;99.90
37998;DHT22;24079;51.824;4.682;2023-06-22T06:17:30;21.70;99.90
37998;DHT22;24079;51.824;4.682;2023-06-22T06:19:56;21.70;99.90
37998;DHT22;24079;51.824;4.682;2023-06-22T06:22:21;21.80;99.90
37998;DHT22;24079;51.824;4.682;2023-06-22T06:24:49;21.90;99.90
37998;DHT22;24079;51.824;4.682;2023-06-22T06:27:15;22.00;99.90
37998;DHT22;24079;51.824;4.682;2023-06-22T06:29:43;22.20;99.90
37998;DHT22;24079;51.824;4.682;2023-06-22T06:32:11;22.50;99.90
37998;DHT22;24079;51.824;4.682;2023-06-22T06:34:36;22.80;99.90
37998;DHT22;24079;51.824;4.682;2023-06-22T06:37:02;22.90;99.90
37998;DHT22;24079;51.824;4.682;2023-06-22T06:39:28;22.90;99.90
37998;DHT22;24079;51.824;4.682;2023-06-22T06:41:54;22.90;99.90
37998;DHT22;24079;51.824;4.682;2023-06-22T06:44:20;23.00;99.90
37998;DHT22;24079;51.824;4.682;2023-06-22T06:46:47;23.20;99.90
37998;DHT22;24079;51.824;4.682;2023-06-22T06:49:13;23.30;99.90
37998;DHT22;24079;51.824;4.682;2023-06-22T06:51:39;23.40;99.90
37998;DHT22;24079;51.824;4.682;2023-06-22T06:54:05;23.50;99.90
37998;DHT22;24079;51.824;4.682;2023-06-22T06:56:31;23.60;99.90
37998;DHT22;24079;51.824;4.682;2023-06-22T06:58:58;23.70;99.90
37998;DHT22;24079;51.824;4.682;2023-06-22T07:01:25;23.80;99.90
37998;DHT22;24079;51.824;4.682;2023-06-22T07:03:51;23.90;99.90
37998;DHT22;24079;51.824;4.682;2023-06-22T07:06:17;24.00;99.90
37998;DHT22;24079;51.824;4.682;2023-06-22T07:08:43;24.00;99.90
37998;DHT22;24079;51.824;4.682;2023-06-22T07:11:09;23.90;99.90
37998;DHT22;24079;51.824;4.682;2023-06-22T07:13:35;23.90;99.90
37998;DHT22;24079;51.824;4.682;2023-06-22T07:16:01;23.90;99.90
37998;DHT22;24079;51.824;4.682;2023-06-22T07:18:26;24.00;99.90
37998;DHT22;24079;51.824;4.682;2023-06-22T07:20:52;24.10;99.90
37998;DHT22;24079;51.824;4.682;2023-06-22T07:23:18;24.30;99.90
37998;DHT22;24079;51.824;4.682;2023-06-22T07:25:43;24.60;99.90
37998;DHT22;24079;51.824;4.682;2023-06-22T07:28:09;24.80;99.90
37998;DHT22;24079;51.824;4.682;2023-06-22T07:30:35;24.80;99.90
37998;DHT22;24079;51.824;4.682;2023-06-22T07:33:01;24.80;99.90
37998;DHT22;24079;51.824;4.682;2023-06-22T07:35:33;24.80;99.90
37998;DHT22;24079;51.824;4.682;2023-06-22T07:38:00;24.80;99.90
37998;DHT22;24079;51.824;4.682;2023-06-22T07:40:26;24.90;99.90
37998;DHT22;24079;51.824;4.682;2023-06-22T07:42:52;25.20;99.90
37998;DHT22;24079;51.824;4.682;2023-06-22T07:45:18;25.20;99.90
37998;DHT22;24079;51.824;4.682;2023-06-22T07:47:44;25.20;99.90
37998;DHT22;24079;51.824;4.682;2023-06-22T07:50:10;25.40;99.90
37998;DHT22;24079;51.824;4.682;2023-06-22T07:52:35;25.40;99.90
37998;DHT22;24079;51.824;4.682;2023-06-22T07:55:01;25.50;99.90
37998;DHT22;24079;51.824;4.682;2023-06-22T07:57:28;25.90;99.90
37998;DHT22;24079;51.824;4.682;2023-06-22T08:00:00;26.10;99.90
37998;DHT22;24079;51.824;4.682;2023-06-22T08:02:26;26.40;99.90
37998;DHT22;24079;51.824;4.682;2023-06-22T08:04:52;26.70;99.90
37998;DHT22;24079;51.824;4.682;2023-06-22T08:07:19;27.00;99.90
37998;DHT22;24079;51.824;4.682;2023-06-22T08:09:48;27.30;99.90
37998;DHT22;24079;51.824;4.682;2023-06-22T08:12:15;27.90;99.90
37998;DHT22;24079;51.824;4.682;2023-06-22T08:14:42;28.50;99.90
37998;DHT22;24079;51.824;4.682;2023-06-22T08:17:08;29.00;99.90
37998;DHT22;24079;51.824;4.682;2023-06-22T08:19:34;29.60;99.90
37998;DHT22;24079;51.824;4.682;2023-06-22T08:22:00;30.00;99.90
37998;DHT22;24079;51.824;4.682;2023-06-22T08:24:26;29.40;99.90
37998;DHT22;24079;51.824;4.682;2023-06-22T08:26:55;28.40;99.90
37998;DHT22;24079;51.824;4.682;2023-06-22T08:29:21;27.60;99.90
37998;DHT22;24079;51.824;4.682;2023-06-22T08:31:47;27.00;99.90
37998;DHT22;24079;51.824;4.682;2023-06-22T08:34:12;26.50;99.90
37998;DHT22;24079;51.824;4.682;2023-06-22T08:36:38;26.20;99.90
37998;DHT22;24079;51.824;4.682;2023-06-22T08:39:07;26.00;99.90
37998;DHT22;24079;51.824;4.682;2023-06-22T08:41:32;26.00;99.90
37998;DHT22;24079;51.824;4.682;2023-06-22T08:43:58;25.70;99.90
37998;DHT22;24079;51.824;4.682;2023-06-22T08:46:23;25.50;99.90
37998;DHT22;24079;51.824;4.682;2023-06-22T08:48:56;25.40;99.90
37998;DHT22;24079;51.824;4.682;2023-06-22T08:51:22;25.30;99.90
37998;DHT22;24079;51.824;4.682;2023-06-22T08:53:47;25.20;99.90
37998;DHT22;24079;51.824;4.682;2023-06-22T08:56:13;25.10;99.90
37998;DHT22;24079;51.824;4.682;2023-06-22T08:58:39;25.20;99.90
37998;DHT22;24079;51.824;4.682;2023-06-22T09:01:04;25.10;99.90
37998;DHT22;24079;51.824;4.682;2023-06-22T09:03:30;25.00;99.90
37998;DHT22;24079;51.824;4.682;2023-06-22T09:05:58;25.00;99.90
37998;DHT22;24079;51.824;4.682;2023-06-22T09:08:24;25.10;99.90
37998;DHT22;24079;51.824;4.682;2023-06-22T09:10:49;25.10;99.90
37998;DHT22;24079;51.824;4.682;2023-06-22T09:13:15;25.00;99.90
37998;DHT22;24079;51.824;4.682;2023-06-22T09:15:40;25.00;99.90
37998;DHT22;24079;51.824;4.682;2023-06-22T09:18:06;25.20;99.90
37998;DHT22;24079;51.824;4.682;2023-06-22T09:20:32;25.40;99.90
37998;DHT22;24079;51.824;4.682;2023-06-22T09:22:57;25.50;99.90
37998;DHT22;24079;51.824;4.682;2023-06-22T09:25:23;25.70;99.90
37998;DHT22;24079;51.824;4.682;2023-06-22T09:27:49;25.90;99.90
37998;DHT22;24079;51.824;4.682;2023-06-22T09:30:14;26.00;99.90
37998;DHT22;24079;51.824;4.682;2023-06-22T09:32:40;26.20;99.90
37998;DHT22;24079;51.824;4.682;2023-06-22T09:35:06;26.40;99.90
37998;DHT22;24079;51.824;4.682;2023-06-22T09:37:32;26.30;99.90
37998;DHT22;24079;51.824;4.682;2023-06-22T09:39:58;26.20;99.90
37998;DHT22;24079;51.824;4.682;2023-06-22T09:42:23;26.10;99.90
37998;DHT22;24079;51.824;4.682;2023-06-22T09:44:49;26.00;99.90
37998;DHT22;24079;51.824;4.682;2023-06-22T09:47:14;25.90;99.90
37998;DHT22;24079;51.824;4.682;2023-06-22T09:49:40;25.90;99.90
37998;DHT22;24079;51.824;4.682;2023-06-22T09:52:06;25.90;99.90
37998;DHT22;24079;51.824;4.682;2023-06-22T09:54:32;25.90;99.90
37998;DHT22;24079;51.824;4.682;2023-06-22T09:56:57;25.70;99.90
37998;DHT22;24079;51.824;4.682;2023-06-22T09:59:23;25.70;99.90
37998;DHT22;24079;51.824;4.682;2023-06-22T10:01:48;25.60;99.90
37998;DHT22;24079;51.824;4.682;2023-06-22T10:04:14;25.50;99.90
37998;DHT22;24079;51.824;4.682;2023-06-22T10:06:40;25.40;99.90
37998;DHT22;24079;51.824;4.682;2023-06-22T10:09:06;25.40;99.90
37998;DHT22;24079;51.824;4.682;2023-06-22T10:11:33;25.30;99.90
37998;DHT22;24079;51.824;4.682;2023-06-22T10:14:01;25.20;99.90
37998;DHT22;24079;51.824;4.682;2023-06-22T10:16:33;25.20;99.90
37998;DHT22;24079;51.824;4.682;2023-06-22T10:19:01;25.20;99.90
37998;DHT22;24079;51.824;4.682;2023-06-22T10:21:26;25.20;99.90
37998;DHT22;24079;51.824;4.682;2023-06-22T10:23:54;25.20;99.90
37998;DHT22;24079;51.824;4.682;2023-06-22T10:26:19;25.20;99.90
37998;DHT22;24079;51.824;4.682;2023-06-22T10:28:45;25.20;99.90
37998;DHT22;24079;51.824;4.682;2023-06-22T10:31:10;25.20;99.90
37998;DHT22;24079;51.824;4.682;2023-06-22T10:33:36;25.20;99.90
37998;DHT22;24079;51.824;4.682;2023-06-22T10:36:02;25.10;99.90
37998;DHT22;24079;51.824;4.682;2023-06-22T10:38:27;25.20;99.90
37998;DHT22;24079;51.824;4.682;2023-06-22T10:40:53;25.20;99.90
37998;DHT22;24079;51.824;4.682;2023-06-22T10:43:18;25.30;99.90
37998;DHT22;24079;51.824;4.682;2023-06-22T10:45:45;25.20;99.90
37998;DHT22;24079;51.824;4.682;2023-06-22T10:48:10;25.20;99.90
37998;DHT22;24079;51.824;4.682;2023-06-22T10:50:36;25.20;99.90
37998;DHT22;24079;51.824;4.682;2023-06-22T10:53:02;25.20;99.90
37998;DHT22;24079;51.824;4.682;2023-06-22T10:55:28;25.20;99.90
37998;DHT22;24079;51.824;4.682;2023-06-22T10:57:54;25.20;99.90
37998;DHT22;24079;51.824;4.682;2023-06-22T11:00:20;25.10;99.90
37998;DHT22;24079;51.824;4.682;2023-06-22T11:02:47;25.10;99.90
37998;DHT22;24079;51.824;4.682;2023-06-22T11:05:13;25.10;99.90
37998;DHT22;24079;51.824;4.682;2023-06-22T11:07:45;25.00;99.90
37998;DHT22;24079;51.824;4.682;2023-06-22T11:10:12;25.00;99.90
37998;DHT22;24079;51.824;4.682;2023-06-22T11:12:38;24.90;99.90
37998;DHT22;24079;51.824;4.682;2023-06-22T11:15:04;24.90;99.90
37998;DHT22;24079;51.824;4.682;2023-06-22T11:17:30;24.80;99.90
37998;DHT22;24079;51.824;4.682;2023-06-22T11:19:56;24.80;99.90
37998;DHT22;24079;51.824;4.682;2023-06-22T11:22:21;24.80;99.90
37998;DHT22;24079;51.824;4.682;2023-06-22T11:24:47;24.80;99.90
37998;DHT22;24079;51.824;4.682;2023-06-22T11:27:13;24.90;99.90
37998;DHT22;24079;51.824;4.682;2023-06-22T11:29:38;25.00;99.90
37998;DHT22;24079;51.824;4.682;2023-06-22T11:32:06;25.00;99.90
37998;DHT22;24079;51.824;4.682;2023-06-22T11:34:33;24.90;99.90
37998;DHT22;24079;51.824;4.682;2023-06-22T11:36:58;24.80;99.90
37998;DHT22;24079;51.824;4.682;2023-06-22T11:39:24;24.70;99.90
37998;DHT22;24079;51.824;4.682;2023-06-22T11:41:50;24.70;99.90
37998;DHT22;24079;51.824;4.682;2023-06-22T11:44:16;24.70;99.90
37998;DHT22;24079;51.824;4.682;2023-06-22T11:46:42;24.70;99.90
37998;DHT22;24079;51.824;4.682;2023-06-22T11:49:08;24.60;99.90
37998;DHT22;24079;51.824;4.682;2023-06-22T11:51:34;24.50;99.90
37998;DHT22;24079;51.824;4.682;2023-06-22T11:54:00;24.50;99.90
37998;DHT22;24079;51.824;4.682;2023-06-22T11:56:28;24.50;99.90
37998;DHT22;24079;51.824;4.682;2023-06-22T11:58:54;24.60;99.90
37998;DHT22;24079;51.824;4.682;2023-06-22T12:01:20;24.70;99.90
37998;DHT22;24079;51.824;4.682;2023-06-22T12:03:47;24.80;99.90
37998;DHT22;24079;51.824;4.682;2023-06-22T12:06:14;24.80;99.90
37998;DHT22;24079;51.824;4.682;2023-06-22T12:08:40;24.70;99.90
37998;DHT22;24079;51.824;4.682;2023-06-22T12:11:06;24.70;99.90
37998;DHT22;24079;51.824;4.682;2023-06-22T12:13:32;24.80;99.90
37998;DHT22;24079;51.824;4.682;2023-06-22T12:15:58;24.80;99.90
37998;DHT22;24079;51.824;4.682;2023-06-22T12:18:24;24.70;99.90
37998;DHT22;24079;51.824;4.682;2023-06-22T12:20:50;24.70;99.90
37998;DHT22;24079;51.824;4.682;2023-06-22T12:23:16;24.70;99.90
37998;DHT22;24079;51.824;4.682;2023-06-22T12:25:45;24.60;99.90
37998;DHT22;24079;51.824;4.682;2023-06-22T12:28:11;24.60;99.90
37998;DHT22;24079;51.824;4.682;2023-06-22T12:30:37;24.50;99.90
37998;DHT22;24079;51.824;4.682;2023-06-22T12:33:03;24.50;99.90
37998;DHT22;24079;51.824;4.682;2023-06-22T12:35:29;24.50;99.90
37998;DHT22;24079;51.824;4.682;2023-06-22T12:37:54;24.50;99.90
37998;DHT22;24079;51.824;4.682;2023-06-22T12:40:20;24.50;99.90
37998;DHT22;24079;51.824;4.682;2023-06-22T12:42:46;24.40;99.90
37998;DHT22;24079;51.824;4.682;2023-06-22T12:45:11;24.30;99.90
37998;DHT22;24079;51.824;4.682;2023-06-22T12:47:37;24.20;99.90
37998;DHT22;24079;51.824;4.682;2023-06-22T12:50:04;24.20;99.90
37998;DHT22;24079;51.824;4.682;2023-06-22T12:52:31;24.20;99.90
37998;DHT22;24079;51.824;4.682;2023-06-22T12:54:59;24.10;99.90
37998;DHT22;24079;51.824;4.682;2023-06-22T12:57:25;24.10;99.90
37998;DHT22;24079;51.824;4.682;2023-06-22T12:59:51;24.10;99.90
37998;DHT22;24079;51.824;4.682;2023-06-22T13:02:16;24.10;99.90
37998;DHT22;24079;51.824;4.682;2023-06-22T13:04:42;24.20;99.90
37998;DHT22;24079;51.824;4.682;2023-06-22T13:07:08;24.10;99.90
37998;DHT22;24079;51.824;4.682;2023-06-22T13:09:36;24.10;99.90
37998;DHT22;24079;51.824;4.682;2023-06-22T13:12:02;24.10;99.90
37998;DHT22;24079;51.824;4.682;2023-06-22T13:14:27;23.90;99.90
37998;DHT22;24079;51.824;4.682;2023-06-22T13:16:53;23.70;99.90
37998;DHT22;24079;51.824;4.682;2023-06-22T13:19:19;23.60;99.90
37998;DHT22;24079;51.824;4.682;2023-06-22T13:21:44;23.50;99.90
37998;DHT22;24079;51.824;4.682;2023-06-22T13:24:10;23.40;99.90
37998;DHT22;24079;51.824;4.682;2023-06-22T13:26:36;23.30;99.90
37998;DHT22;24079;51.824;4.682;2023-06-22T13:29:01;23.30;99.90
37998;DHT22;24079;51.824;4.682;2023-06-22T13:31:27;23.20;99.90
37998;DHT22;24079;51.824;4.682;2023-06-22T13:33:53;23.20;99.90
37998;DHT22;24079;51.824;4.682;2023-06-22T13:36:19;23.10;99.90
37998;DHT22;24079;51.824;4.682;2023-06-22T13:38:45;23.10;99.90
37998;DHT22;24079;51.824;4.682;2023-06-22T13:41:11;23.10;99.90
37998;DHT22;24079;51.824;4.682;2023-06-22T13:43:37;23.10;99.90
37998;DHT22;24079;51.824;4.682;2023-06-22T13:46:03;23.10;99.90
37998;DHT22;24079;51.824;4.682;2023-06-22T13:48:29;23.10;99.90
37998;DHT22;24079;51.824;4.682;2023-06-22T13:50:56;23.00;99.90
37998;DHT22;24079;51.824;4.682;2023-06-22T13:53:25;23.00;99.90
37998;DHT22;24079;51.824;4.682;2023-06-22T13:55:52;22.90;99.90
37998;DHT22;24079;51.824;4.682;2023-06-22T13:58:18;22.80;99.90
37998;DHT22;24079;51.824;4.682;2023-06-22T14:00:45;22.70;99.90
37998;DHT22;24079;51.824;4.682;2023-06-22T14:03:11;22.70;99.90
37998;DHT22;24079;51.824;4.682;2023-06-22T14:05:38;22.70;99.90
37998;DHT22;24079;51.824;4.682;2023-06-22T14:08:04;22.70;99.90
37998;DHT22;24079;51.824;4.682;2023-06-22T14:10:30;22.60;99.90
37998;DHT22;24079;51.824;4.682;2023-06-22T14:12:56;22.50;99.90
37998;DHT22;24079;51.824;4.682;2023-06-22T14:15:22;22.40;99.90
37998;DHT22;24079;51.824;4.682;2023-06-22T14:17:48;22.40;99.90
37998;DHT22;24079;51.824;4.682;2023-06-22T14:20:14;22.40;99.90
37998;DHT22;24079;51.824;4.682;2023-06-22T14:22:40;22.40;99.90
37998;DHT22;24079;51.824;4.682;2023-06-22T14:25:06;22.40;99.90
37998;DHT22;24079;51.824;4.682;2023-06-22T14:27:32;22.30;99.90
37998;DHT22;24079;51.824;4.682;2023-06-22T14:29:58;22.30;99.90
37998;DHT22;24079;51.824;4.682;2023-06-22T14:32:24;22.30;99.90
37998;DHT22;24079;51.824;4.682;2023-06-22T14:34:50;22.30;99.90
37998;DHT22;24079;51.824;4.682;2023-06-22T14:37:16;22.30;99.90
37998;DHT22;24079;51.824;4.682;2023-06-22T14:39:42;22.30;99.90
37998;DHT22;24079;51.824;4.682;2023-06-22T14:42:09;22.40;99.90
37998;DHT22;24079;51.824;4.682;2023-06-22T14:44:35;22.30;99.90
37998;DHT22;24079;51.824;4.682;2023-06-22T14:47:01;22.40;99.90
37998;DHT22;24079;51.824;4.682;2023-06-22T14:49:27;22.30;99.90
37998;DHT22;24079;51.824;4.682;2023-06-22T14:51:53;22.30;99.90
37998;DHT22;24079;51.824;4.682;2023-06-22T14:54:18;22.30;99.90
37998;DHT22;24079;51.824;4.682;2023-06-22T14:56:44;22.20;99.90
37998;DHT22;24079;51.824;4.682;2023-06-22T14:59:10;22.00;99.90
37998;DHT22;24079;51.824;4.682;2023-06-22T15:01:35;21.90;99.90
37998;DHT22;24079;51.824;4.682;2023-06-22T15:04:01;21.80;99.90
37998;DHT22;24079;51.824;4.682;2023-06-22T15:06:27;21.80;99.90
37998;DHT22;24079;51.824;4.682;2023-06-22T15:08:53;21.70;99.90
37998;DHT22;24079;51.824;4.682;2023-06-22T15:11:18;21.60;99.90
37998;DHT22;24079;51.824;4.682;2023-06-22T15:13:44;21.50;99.90
37998;DHT22;24079;51.824;4.682;2023-06-22T15:16:10;21.40;99.90
37998;DHT22;24079;51.824;4.682;2023-06-22T15:18:36;21.40;99.90
37998;DHT22;24079;51.824;4.682;2023-06-22T15:21:03;21.40;99.90
37998;DHT22;24079;51.824;4.682;2023-06-22T15:23:30;21.30;99.90
37998;DHT22;24079;51.824;4.682;2023-06-22T15:25:58;21.30;99.90
37998;DHT22;24079;51.824;4.682;2023-06-22T15:28:24;21.40;99.90
37998;DHT22;24079;51.824;4.682;2023-06-22T15:30:51;21.30;99.90
37998;DHT22;24079;51.824;4.682;2023-06-22T15:33:17;21.30;99.90